Time;durP1;ratioP1;P1;durP2;ratioP2;P2;SDS_P1;SDS_P2;PMS_P1;PMS_P2;Temp;Humidity;BMP_temperature;BMP_pressure;BME280_temperature;BME280_humidity;BME280_pressure;Samples;Min_cycle;Max_cycle;Signal;HPM_P1;HPM_P2
2021/07/28 00:00:02;;;;;;;9.93;6.18;;;19.00;90.00;;;;;;4993897;28;20054;-86
2021/07/28 00:02:27;;;;;;;8.20;5.80;;;18.90;90.10;;;;;;4994718;28;20050;-86
2021/07/28 00:04:55;;;;;;;6.97;5.22;;;18.90;90.30;;;;;;4994874;28;20057;-85
2021/07/28 00:07:21;;;;;;;7.30;5.75;;;18.80;90.40;;;;;;4994126;28;20050;-86
2021/07/28 00:09:47;;;;;;;8.40;5.93;;;18.90;90.40;;;;;;4994952;28;20058;-87
2021/07/28 00:12:13;;;;;;;8.13;5.75;;;18.90;90.40;;;;;;4993894;28;20486;-86
2021/07/28 00:14:38;;;;;;;8.82;6.25;;;18.90;90.30;;;;;;4994383;28;20050;-86
2021/07/28 00:17:07;;;;;;;9.25;6.13;;;18.90;90.30;;;;;;4994180;28;20057;-86
2021/07/28 00:19:47;;;;;;;8.73;5.68;;;18.80;90.30;;;;;;4993475;28;20062;-87
2021/07/28 00:24:57;;;;;;;7.45;5.75;;;18.80;90.30;;;;;;4995353;28;20050;-86
2021/07/28 00:27:23;;;;;;;8.95;6.13;;;18.80;90.40;;;;;;4993847;28;20058;-87
2021/07/28 00:29:48;;;;;;;7.82;5.57;;;18.80;90.30;;;;;;5001952;28;20042;-88
2021/07/28 00:32:14;;;;;;;7.93;6.30;;;18.80;90.10;;;;;;4999527;28;20058;-88
2021/07/28 00:34:41;;;;;;;7.97;5.97;;;18.70;90.00;;;;;;5002616;28;20050;-87
2021/07/28 00:37:06;;;;;;;10.00;6.70;;;18.70;90.30;;;;;;5013671;28;20068;-87
2021/07/28 00:39:32;;;;;;;13.68;8.63;;;18.70;90.30;;;;;;5013891;28;20493;-87
2021/07/28 00:41:58;;;;;;;9.68;6.97;;;18.70;90.10;;;;;;5013131;28;20073;-87
2021/07/28 00:44:23;;;;;;;9.15;7.45;;;18.70;90.20;;;;;;4999867;28;20050;-87
2021/07/28 00:46:49;;;;;;;9.55;6.43;;;18.60;90.00;;;;;;4994380;28;20050;-87
2021/07/28 00:49:15;;;;;;;9.95;8.10;;;18.60;90.20;;;;;;4993179;28;20089;-87
2021/07/28 00:51:41;;;;;;;7.93;6.60;;;18.60;90.10;;;;;;4994127;28;20058;-87
2021/07/28 00:54:07;;;;;;;9.20;6.40;;;18.60;90.20;;;;;;4992189;28;20050;-87
2021/07/28 00:56:33;;;;;;;10.45;6.35;;;18.50;90.10;;;;;;4993725;28;20061;-87
2021/07/28 00:58:59;;;;;;;9.27;7.85;;;18.50;90.10;;;;;;4993519;28;20074;-87
2021/07/28 01:01:26;;;;;;;9.75;6.85;;;18.50;90.20;;;;;;4994022;28;20069;-87
2021/07/28 01:03:51;;;;;;;11.60;8.02;;;18.50;90.10;;;;;;4993376;28;20505;-88
2021/07/28 01:06:17;;;;;;;9.00;6.80;;;18.50;90.10;;;;;;4993926;28;20058;-88
2021/07/28 01:08:43;;;;;;;9.25;6.38;;;18.50;90.20;;;;;;4993101;28;20050;-88
2021/07/28 01:11:09;;;;;;;8.55;6.40;;;18.40;90.30;;;;;;4991512;28;20490;-87
2021/07/28 01:13:36;;;;;;;8.82;6.97;;;18.40;90.40;;;;;;4994027;28;20080;-88
2021/07/28 01:16:09;;;;;;;8.85;6.97;;;18.40;90.20;;;;;;5004163;28;20064;-89
2021/07/28 01:18:35;;;;;;;9.30;6.97;;;18.40;90.30;;;;;;5013649;28;20172;-88
2021/07/28 01:21:05;;;;;;;9.07;6.50;;;18.30;90.50;;;;;;5013686;28;20053;-87
2021/07/28 01:23:31;;;;;;;9.02;7.45;;;18.30;90.20;;;;;;5006252;28;20050;-87
2021/07/28 01:26:00;;;;;;;9.63;7.05;;;18.30;89.60;;;;;;4993512;28;20473;-87
2021/07/28 01:28:27;;;;;;;10.70;7.25;;;18.30;90.30;;;;;;4993972;28;20050;-87
2021/07/28 01:31:13;;;;;;;9.70;6.80;;;18.30;90.30;;;;;;4993375;28;20105;-87
2021/07/28 01:33:42;;;;;;;9.05;6.97;;;18.20;89.70;;;;;;4997579;28;20051;-87
2021/07/28 01:36:21;;;;;;;8.10;6.82;;;18.20;90.60;;;;;;4997850;28;20058;-87
2021/07/28 01:38:48;;;;;;;8.48;6.93;;;18.20;90.50;;;;;;4999325;28;20046;-87
2021/07/28 01:41:14;;;;;;;9.73;6.93;;;18.20;90.50;;;;;;5016944;28;20437;-87
2021/07/28 01:43:41;;;;;;;10.07;6.80;;;18.20;90.40;;;;;;5016605;28;20042;-87
2021/07/28 01:46:07;;;;;;;12.32;7.63;;;18.20;90.50;;;;;;5016810;28;20133;-88
2021/07/28 01:48:34;;;;;;;11.50;8.30;;;18.10;90.60;;;;;;5017137;28;20053;-88
2021/07/28 01:51:00;;;;;;;11.02;9.00;;;18.10;90.30;;;;;;5015979;28;20050;-87
2021/07/28 01:53:28;;;;;;;9.55;7.75;;;18.10;90.30;;;;;;5015480;28;20046;-87
2021/07/28 01:55:55;;;;;;;9.18;7.35;;;18.10;90.40;;;;;;5016787;28;20552;-86
2021/07/28 01:58:21;;;;;;;10.80;7.90;;;18.10;90.70;;;;;;5015625;28;20050;-87
2021/07/28 02:00:47;;;;;;;12.40;8.32;;;18.00;90.30;;;;;;5016866;28;20046;-86
2021/07/28 02:03:12;;;;;;;11.27;7.80;;;18.00;90.50;;;;;;5000538;28;20487;-86
2021/07/28 02:05:40;;;;;;;10.07;7.82;;;18.00;90.50;;;;;;4996451;28;20105;-86
2021/07/28 02:08:11;;;;;;;11.13;8.55;;;18.00;90.20;;;;;;4996545;28;20081;-86
2021/07/28 02:10:39;;;;;;;11.15;8.07;;;18.00;90.30;;;;;;4997180;28;20130;-87
2021/07/28 02:13:05;;;;;;;10.93;8.32;;;18.00;90.30;;;;;;4995920;28;20086;-86
2021/07/28 02:15:32;;;;;;;9.20;7.60;;;17.90;90.30;;;;;;4995591;28;20112;-86
2021/07/28 02:17:59;;;;;;;10.90;8.43;;;17.90;90.30;;;;;;4996715;28;20050;-86
2021/07/28 02:20:26;;;;;;;11.10;7.85;;;17.90;90.60;;;;;;4996754;28;20058;-85
2021/07/28 02:22:53;;;;;;;13.35;8.57;;;17.90;90.20;;;;;;4997060;28;20109;-86
2021/07/28 02:25:19;;;;;;;9.63;8.20;;;17.90;90.30;;;;;;5014897;28;20442;-86
2021/07/28 02:27:45;;;;;;;9.65;8.35;;;17.90;90.60;;;;;;5015645;28;20104;-86
2021/07/28 02:30:13;;;;;;;10.50;8.35;;;17.80;90.50;;;;;;5015931;28;20050;-86
2021/07/28 02:32:39;;;;;;;11.30;8.98;;;17.80;90.20;;;;;;5015889;28;20053;-87
2021/07/28 02:35:06;;;;;;;10.90;8.23;;;17.70;90.80;;;;;;5015715;28;20053;-87
2021/07/28 02:37:32;;;;;;;17.02;11.50;;;17.80;90.50;;;;;;5016083;28;20056;-87
2021/07/28 02:39:58;;;;;;;10.68;8.32;;;17.80;90.40;;;;;;5015404;28;20046;-86
2021/07/28 02:42:24;;;;;;;11.73;9.07;;;17.70;90.60;;;;;;5016082;28;20049;-86
2021/07/28 02:44:51;;;;;;;11.88;9.80;;;17.70;90.10;;;;;;5013854;28;20046;-85
2021/07/28 02:47:17;;;;;;;12.40;9.52;;;17.70;90.40;;;;;;5014615;28;20883;-86
2021/07/28 02:49:43;;;;;;;14.52;9.65;;;17.60;90.50;;;;;;5016311;28;20045;-87
2021/07/28 02:52:09;;;;;;;12.27;9.05;;;17.60;90.50;;;;;;5015920;28;20490;-86
2021/07/28 02:54:34;;;;;;;13.02;10.20;;;17.60;90.80;;;;;;5002404;28;20112;-87
2021/07/28 02:57:00;;;;;;;12.30;9.77;;;17.60;90.80;;;;;;4995788;28;20062;-86
2021/07/28 02:59:26;;;;;;;11.88;9.27;;;17.60;90.90;;;;;;4996334;28;20052;-86
2021/07/28 03:01:54;;;;;;;11.35;9.70;;;17.50;90.70;;;;;;4995356;28;20137;-86
2021/07/28 03:04:20;;;;;;;13.77;9.90;;;17.50;90.80;;;;;;4999980;28;20048;-86
2021/07/28 03:06:47;;;;;;;13.77;10.57;;;17.50;90.90;;;;;;5008023;28;20050;-86
2021/07/28 03:09:13;;;;;;;14.10;10.90;;;17.50;90.90;;;;;;5011155;28;20137;-87
2021/07/28 03:11:39;;;;;;;16.00;11.85;;;17.50;90.90;;;;;;5011932;28;20137;-87
2021/07/28 03:14:05;;;;;;;11.30;9.45;;;17.40;91.00;;;;;;5013469;28;20054;-87
2021/07/28 03:16:31;;;;;;;17.10;13.35;;;17.50;91.10;;;;;;5014764;28;20068;-87
2021/07/28 03:18:58;;;;;;;16.75;11.48;;;17.40;91.00;;;;;;5017324;28;20137;-86
2021/07/28 03:21:23;;;;;;;13.57;10.50;;;17.40;90.90;;;;;;5015503;28;20054;-86
2021/07/28 03:23:50;;;;;;;18.77;13.45;;;17.40;90.80;;;;;;5014158;28;20076;-85
2021/07/28 03:26:16;;;;;;;15.63;12.35;;;17.40;90.90;;;;;;5015002;28;20045;-86
2021/07/28 03:28:41;;;;;;;16.15;12.50;;;17.30;91.00;;;;;;5014966;28;20432;-86
2021/07/28 03:31:07;;;;;;;15.18;10.70;;;17.30;90.90;;;;;;5014133;28;20049;-86
2021/07/28 03:33:33;;;;;;;13.65;10.20;;;17.30;91.10;;;;;;5015407;28;20049;-87
2021/07/28 03:35:58;;;;;;;12.82;10.45;;;17.30;91.20;;;;;;4997346;28;20046;-87
2021/07/28 03:38:24;;;;;;;12.73;10.18;;;17.30;91.10;;;;;;4994949;28;20547;-87
2021/07/28 03:40:50;;;;;;;17.55;12.60;;;17.20;90.70;;;;;;4995672;28;20054;-86
2021/07/28 03:43:19;;;;;;;14.95;11.40;;;17.20;90.80;;;;;;4994434;28;20054;-86
2021/07/28 03:45:45;;;;;;;15.52;11.77;;;17.20;91.00;;;;;;4995097;28;20054;-86
2021/07/28 03:48:10;;;;;;;15.10;11.90;;;17.20;91.00;;;;;;4995100;28;20472;-86
2021/07/28 03:50:36;;;;;;;16.92;14.10;;;17.20;91.10;;;;;;4994732;28;20058;-87
2021/07/28 03:53:03;;;;;;;12.80;10.48;;;17.20;91.20;;;;;;4995179;28;20050;-86
2021/07/28 03:55:30;;;;;;;16.35;12.20;;;17.20;91.30;;;;;;4995489;28;20479;-86
2021/07/28 03:57:55;;;;;;;17.05;13.13;;;17.10;91.30;;;;;;4994467;28;20096;-86
2021/07/28 04:00:21;;;;;;;13.38;11.15;;;17.10;91.40;;;;;;4994485;28;20054;-87
2021/07/28 04:02:48;;;;;;;14.32;12.02;;;17.10;91.30;;;;;;4994948;28;20050;-87
2021/07/28 04:05:15;;;;;;;16.15;12.00;;;17.10;91.40;;;;;;5004914;28;20100;-86
2021/07/28 04:07:41;;;;;;;16.15;12.40;;;17.10;91.50;;;;;;5013148;28;20498;-85
2021/07/28 04:10:10;;;;;;;19.73;13.40;;;17.00;91.50;;;;;;5013799;28;20490;-85
2021/07/28 04:12:36;;;;;;;17.67;13.60;;;17.00;91.60;;;;;;5013622;28;20472;-86
2021/07/28 04:15:02;;;;;;;19.90;14.43;;;17.00;91.60;;;;;;5013797;28;20142;-86
2021/07/28 04:17:28;;;;;;;17.60;12.45;;;16.90;91.70;;;;;;5014114;28;20410;-86
2021/07/28 04:19:55;;;;;;;17.10;12.57;;;16.90;91.60;;;;;;5013250;28;20466;-85
2021/07/28 04:22:27;;;;;;;14.27;11.45;;;16.90;91.70;;;;;;5013525;28;20049;-86
2021/07/28 04:24:53;;;;;;;16.42;12.73;;;16.90;91.70;;;;;;5012902;28;20517;-87
2021/07/28 04:27:19;;;;;;;17.27;14.07;;;16.90;91.80;;;;;;5013222;28;20050;-86
2021/07/28 04:29:48;;;;;;;16.27;12.52;;;16.90;91.90;;;;;;5013928;28;20515;-86
2021/07/28 04:32:13;;;;;;;17.55;13.35;;;16.90;91.80;;;;;;5013503;28;20049;-86
2021/07/28 04:34:39;;;;;;;18.45;13.70;;;16.90;91.80;;;;;;5001290;28;20117;-86
2021/07/28 04:37:05;;;;;;;17.80;13.07;;;16.90;91.90;;;;;;4994409;28;20078;-86
2021/07/28 04:39:34;;;;;;;17.15;12.77;;;16.90;92.00;;;;;;4993446;28;20068;-86
2021/07/28 04:41:59;;;;;;;18.40;13.73;;;16.90;92.10;;;;;;4993881;28;20510;-86
2021/07/28 04:44:25;;;;;;;18.85;12.65;;;16.80;92.10;;;;;;4993998;28;20057;-87
2021/07/28 04:46:51;;;;;;;17.20;13.65;;;16.80;92.10;;;;;;4993729;28;20444;-86
2021/07/28 04:49:17;;;;;;;18.55;14.18;;;16.80;92.00;;;;;;4993978;28;20042;-87
2021/07/28 04:51:43;;;;;;;17.67;12.50;;;16.80;92.30;;;;;;4994311;28;20096;-85
2021/07/28 04:54:08;;;;;;;21.02;14.73;;;16.80;92.30;;;;;;4994231;28;20046;-86
2021/07/28 04:56:34;;;;;;;18.30;13.82;;;16.80;92.40;;;;;;4993797;28;20450;-86
2021/07/28 04:58:59;;;;;;;18.17;12.27;;;16.80;92.50;;;;;;4994004;28;20046;-87
2021/07/28 05:01:28;;;;;;;15.75;12.63;;;16.80;92.40;;;;;;5003744;28;20046;-87
2021/07/28 05:03:54;;;;;;;19.15;14.57;;;16.80;92.40;;;;;;5013277;28;20049;-86
2021/07/28 05:06:22;;;;;;;18.63;13.68;;;16.80;92.50;;;;;;5013101;28;20660;-86
2021/07/28 05:08:48;;;;;;;20.55;15.88;;;16.80;92.60;;;;;;5012044;28;20128;-87
2021/07/28 05:11:14;;;;;;;18.90;14.73;;;16.80;92.80;;;;;;5012307;28;20077;-85
2021/07/28 05:13:39;;;;;;;21.13;16.58;;;16.90;92.90;;;;;;5013303;28;20430;-87
2021/07/28 05:16:05;;;;;;;17.00;12.95;;;16.90;93.10;;;;;;5012328;28;20116;-88
2021/07/28 05:18:31;;;;;;;22.35;16.88;;;16.90;92.90;;;;;;5013455;28;20057;-88
2021/07/28 05:20:59;;;;;;;23.70;16.25;;;16.90;93.00;;;;;;4998231;28;20129;-84
2021/07/28 05:23:25;;;;;;;19.30;15.95;;;16.90;93.20;;;;;;5012360;28;20085;-84
2021/07/28 05:25:51;;;;;;;22.30;17.88;;;16.90;93.10;;;;;;5013554;28;20049;-87
2021/07/28 05:28:17;;;;;;;22.88;16.10;;;16.90;93.40;;;;;;5012571;28;20089;-87
2021/07/28 05:30:42;;;;;;;22.98;18.13;;;16.90;93.30;;;;;;5005883;28;20042;-89
2021/07/28 05:33:08;;;;;;;23.55;18.08;;;16.90;93.50;;;;;;4993575;28;20057;-87
2021/07/28 05:35:34;;;;;;;22.55;17.95;;;16.90;93.50;;;;;;4993905;28;20047;-86
2021/07/28 05:38:02;;;;;;;21.05;17.35;;;16.90;93.40;;;;;;4993305;28;20047;-86
2021/07/28 05:40:29;;;;;;;25.58;20.05;;;17.00;93.50;;;;;;4993857;28;20130;-89
2021/07/28 05:42:55;;;;;;;23.08;18.13;;;17.00;93.60;;;;;;4993594;28;20154;-88
2021/07/28 05:45:21;;;;;;;22.70;18.50;;;17.00;93.50;;;;;;4993848;28;20050;-87
2021/07/28 05:47:47;;;;;;;20.10;15.63;;;17.10;93.70;;;;;;4993844;28;20050;-87
2021/07/28 05:50:14;;;;;;;24.65;19.15;;;17.10;93.50;;;;;;4992940;28;20453;-86
2021/07/28 05:52:40;;;;;;;26.63;20.98;;;17.10;93.50;;;;;;4993558;28;20061;-84
2021/07/28 05:55:08;;;;;;;20.35;16.33;;;17.10;93.70;;;;;;4991835;28;20137;-84
2021/07/28 05:57:35;;;;;;;23.67;18.63;;;17.20;93.60;;;;;;4993140;28;20055;-86
2021/07/28 06:00:02;;;;;;;18.95;15.88;;;17.20;93.60;;;;;;4993297;28;20054;-87
2021/07/28 06:02:28;;;;;;;25.85;20.20;;;17.20;93.50;;;;;;4993870;28;20051;-85
2021/07/28 06:04:54;;;;;;;25.38;18.13;;;17.20;93.70;;;;;;4992958;28;20047;-88
2021/07/28 06:07:20;;;;;;;26.95;20.63;;;17.20;93.60;;;;;;4992905;28;20112;-85
2021/07/28 06:09:46;;;;;;;24.02;20.13;;;17.30;93.80;;;;;;4993311;28;20497;-84
2021/07/28 06:12:16;;;;;;;24.15;19.40;;;17.30;93.80;;;;;;4992783;28;20054;-85
2021/07/28 06:14:42;;;;;;;22.70;18.58;;;17.30;93.90;;;;;;4993716;28;20129;-87
2021/07/28 06:17:08;;;;;;;22.75;19.15;;;17.30;93.90;;;;;;4993328;28;20074;-85
2021/07/28 06:19:33;;;;;;;22.92;19.40;;;17.30;94.00;;;;;;4995920;28;20050;-85
2021/07/28 06:21:59;;;;;;;22.27;18.38;;;17.30;93.90;;;;;;4996924;28;20128;-84
2021/07/28 06:24:27;;;;;;;24.45;19.23;;;17.30;93.90;;;;;;4997022;28;20054;-83
2021/07/28 06:26:53;;;;;;;20.52;17.48;;;17.30;93.90;;;;;;4996331;28;20069;-84
2021/07/28 06:29:21;;;;;;;21.25;17.42;;;17.40;93.80;;;;;;4996838;28;20042;-85
2021/07/28 06:31:46;;;;;;;21.95;17.23;;;17.40;93.80;;;;;;4997175;28;20056;-84
2021/07/28 06:34:12;;;;;;;24.33;18.08;;;17.40;93.70;;;;;;4996198;28;20494;-85
2021/07/28 06:36:38;;;;;;;23.92;18.13;;;17.40;93.80;;;;;;4996794;28;20046;-85
2021/07/28 06:39:03;;;;;;;25.00;18.63;;;17.40;93.80;;;;;;5001204;28;20045;-85
2021/07/28 06:41:29;;;;;;;22.77;17.40;;;17.50;93.90;;;;;;5016312;28;20065;-86
2021/07/28 06:43:55;;;;;;;21.38;17.15;;;17.50;93.80;;;;;;5016091;28;20042;-85
2021/07/28 06:46:20;;;;;;;18.77;16.23;;;17.50;93.60;;;;;;5015523;28;20387;-85
2021/07/28 06:48:46;;;;;;;20.25;15.93;;;17.50;93.50;;;;;;5014364;28;20149;-86
2021/07/28 06:51:11;;;;;;;21.58;18.20;;;17.50;93.40;;;;;;5015779;28;20088;-86
2021/07/28 06:53:37;;;;;;;21.33;18.80;;;17.60;93.50;;;;;;5015292;28;20038;-82
2021/07/28 06:56:03;;;;;;;23.75;18.98;;;17.50;93.60;;;;;;5013227;28;20092;-86
2021/07/28 06:58:29;;;;;;;23.17;17.77;;;17.50;93.80;;;;;;5005086;28;20046;-86
2021/07/28 07:00:56;;;;;;;25.08;18.70;;;17.50;93.80;;;;;;5010096;28;20054;-86
2021/07/28 07:03:22;;;;;;;19.55;15.75;;;17.50;93.90;;;;;;4996154;28;20384;-86
2021/07/28 07:05:49;;;;;;;21.55;17.00;;;17.60;93.80;;;;;;5011176;28;20061;-87
2021/07/28 07:08:16;;;;;;;20.35;16.88;;;17.60;93.80;;;;;;5012626;28;20479;-89
2021/07/28 07:10:41;;;;;;;23.77;17.63;;;17.60;93.80;;;;;;5013444;28;20049;-85
2021/07/28 07:13:07;;;;;;;20.50;17.20;;;17.60;93.90;;;;;;5007416;28;20050;-88
2021/07/28 07:15:32;;;;;;;24.80;18.17;;;17.60;94.00;;;;;;5015977;28;20053;-88
2021/07/28 07:17:58;;;;;;;22.00;16.85;;;17.60;94.10;;;;;;5015086;28;20088;-87
2021/07/28 07:20:24;;;;;;;20.98;16.92;;;17.60;94.00;;;;;;5015219;28;20050;-89
2021/07/28 07:22:50;;;;;;;23.15;18.00;;;17.60;93.90;;;;;;5013843;28;20050;-89
2021/07/28 07:25:15;;;;;;;22.17;18.30;;;17.70;94.00;;;;;;5014453;28;20042;-87
2021/07/28 07:27:42;;;;;;;20.17;16.85;;;17.70;94.20;;;;;;5014591;28;20517;-87
2021/07/28 07:30:09;;;;;;;23.45;17.48;;;17.70;94.10;;;;;;5012872;28;20038;-88
2021/07/28 07:32:35;;;;;;;22.13;17.27;;;17.70;94.20;;;;;;5015467;28;20060;-88
2021/07/28 07:35:01;;;;;;;19.95;16.58;;;17.80;94.20;;;;;;5009507;28;20383;-88
2021/07/28 07:37:27;;;;;;;21.98;17.48;;;17.90;94.10;;;;;;5014422;28;20053;-90
2021/07/28 07:39:53;;;;;;;21.40;16.88;;;17.90;94.10;;;;;;5012249;28;20500;-87
2021/07/28 07:42:20;;;;;;;19.08;16.52;;;18.00;94.00;;;;;;5004366;28;20508;-87
2021/07/28 07:44:48;;;;;;;23.85;18.58;;;18.00;93.80;;;;;;5014288;28;20445;-87
2021/07/28 07:47:14;;;;;;;23.05;17.45;;;18.00;93.80;;;;;;5014763;28;20141;-87
2021/07/28 07:49:39;;;;;;;22.88;19.05;;;18.10;93.80;;;;;;5014387;28;20073;-88
2021/07/28 07:52:05;;;;;;;21.92;18.85;;;18.10;93.90;;;;;;5012531;28;20050;-87
2021/07/28 07:54:32;;;;;;;25.30;19.98;;;18.20;94.00;;;;;;4996216;28;20048;-87
2021/07/28 07:56:57;;;;;;;22.48;18.95;;;18.30;94.10;;;;;;5002715;28;20505;-85
2021/07/28 07:59:23;;;;;;;21.92;18.33;;;18.40;94.10;;;;;;5014768;28;20046;-87
2021/07/28 08:01:49;;;;;;;22.75;18.13;;;18.50;94.10;;;;;;5014528;28;20050;-86
2021/07/28 08:04:17;;;;;;;23.10;17.77;;;18.50;94.00;;;;;;5013786;28;20598;-87
2021/07/28 08:06:44;;;;;;;19.80;16.95;;;18.60;93.80;;;;;;5000955;28;20531;-87
2021/07/28 08:09:10;;;;;;;19.50;16.50;;;18.70;93.60;;;;;;5014155;28;20067;-90
2021/07/28 08:11:36;;;;;;;20.00;15.52;;;18.80;93.70;;;;;;5014475;28;20053;-92
2021/07/28 08:14:01;;;;;;;24.17;15.40;;;18.80;93.00;;;;;;5012066;28;20092;-90
2021/07/28 08:16:27;;;;;;;22.27;15.93;;;18.80;92.90;;;;;;5014906;28;20558;-89
2021/07/28 08:18:53;;;;;;;19.88;15.20;;;18.90;92.80;;;;;;5013292;28;20056;-91
2021/07/28 08:21:18;;;;;;;17.95;14.50;;;18.90;92.60;;;;;;5014535;28;20042;-89
2021/07/28 08:23:46;;;;;;;17.77;13.70;;;18.90;92.70;;;;;;5014918;28;20081;-88
2021/07/28 08:26:13;;;;;;;16.75;13.95;;;18.90;92.30;;;;;;5013843;28;20069;-92
2021/07/28 08:28:40;;;;;;;18.67;14.85;;;18.90;92.30;;;;;;5010607;28;20092;-89
2021/07/28 08:31:06;;;;;;;17.85;14.32;;;18.90;92.20;;;;;;4998134;28;20053;-89
2021/07/28 08:33:32;;;;;;;17.63;15.10;;;18.90;92.20;;;;;;5006590;28;20041;-91
2021/07/28 08:35:58;;;;;;;17.30;13.10;;;18.90;92.10;;;;;;5010627;28;20056;-88
2021/07/28 08:38:25;;;;;;;17.13;13.23;;;18.90;92.10;;;;;;5010542;28;20486;-86
2021/07/28 08:41:03;;;;;;;17.77;13.32;;;19.00;92.10;;;;;;4997695;28;20073;-87
2021/07/28 08:43:32;;;;;;;15.98;13.45;;;18.90;92.10;;;;;;5006170;28;20041;-86
2021/07/28 08:45:59;;;;;;;18.55;14.30;;;19.00;92.20;;;;;;5006304;28;20592;-86
2021/07/28 08:48:29;;;;;;;18.48;14.57;;;19.00;92.30;;;;;;5005987;28;20383;-88
2021/07/28 08:50:55;;;;;;;18.83;13.35;;;19.10;92.40;;;;;;5010991;28;20073;-88
2021/07/28 08:53:22;;;;;;;19.65;14.02;;;19.20;92.10;;;;;;5009138;28;20141;-87
2021/07/28 08:55:49;;;;;;;16.48;13.13;;;19.20;92.00;;;;;;5011867;28;20061;-89
2021/07/28 08:58:20;;;;;;;18.10;13.25;;;19.30;91.90;;;;;;5005399;28;20045;-89
2021/07/28 09:00:47;;;;;;;17.90;13.88;;;19.40;91.50;;;;;;5013147;28;20414;-88
2021/07/28 09:03:13;;;;;;;18.05;13.40;;;19.40;91.40;;;;;;5010361;28;20069;-88
2021/07/28 09:05:47;;;;;;;14.38;12.10;;;19.50;91.60;;;;;;5013520;28;20100;-87
2021/07/28 09:08:30;;;;;;;17.42;12.75;;;19.60;91.60;;;;;;5012936;28;20050;-86
2021/07/28 09:10:59;;;;;;;18.52;13.07;;;19.70;91.60;;;;;;5018869;28;20049;-88
2021/07/28 09:13:31;;;;;;;18.88;13.25;;;19.80;91.50;;;;;;5013032;28;20085;-85
2021/07/28 09:16:06;;;;;;;14.15;11.75;;;19.90;91.30;;;;;;4996282;28;20050;-87
2021/07/28 09:18:36;;;;;;;15.32;11.40;;;20.00;91.10;;;;;;5010956;28;20096;-88
2021/07/28 09:21:23;;;;;;;14.63;10.85;;;20.10;91.10;;;;;;5012518;28;20137;-88
2021/07/28 09:24:10;;;;;;;14.02;10.60;;;20.20;90.80;;;;;;5013518;28;20049;-89
2021/07/28 09:26:49;;;;;;;12.80;11.00;;;20.30;90.30;;;;;;5012703;28;20490;-90
2021/07/28 09:29:18;;;;;;;13.45;10.60;;;20.40;90.10;;;;;;5010632;28;20053;-89
2021/07/28 09:31:46;;;;;;;15.55;10.27;;;20.40;90.10;;;;;;5013112;28;20077;-89
2021/07/28 09:34:18;;;;;;;12.70;10.32;;;20.40;88.80;;;;;;5003499;28;20117;-88
2021/07/28 09:36:44;;;;;;;15.27;11.07;;;20.50;88.70;;;;;;4992636;28;20413;-92
2021/07/28 09:39:09;;;;;;;11.73;10.07;;;20.50;88.70;;;;;;4993444;28;20054;-88
2021/07/28 09:41:39;;;;;;;15.45;10.75;;;20.50;88.90;;;;;;4993111;28;20054;-88
2021/07/28 09:44:05;;;;;;;13.93;11.10;;;20.50;88.50;;;;;;4992566;28;20059;-89
2021/07/28 09:46:39;;;;;;;13.18;10.77;;;20.50;88.60;;;;;;4998833;28;20453;-87
2021/07/28 09:49:09;;;;;;;12.32;9.48;;;20.50;88.70;;;;;;5008854;28;20103;-88
2021/07/28 09:51:41;;;;;;;11.82;9.18;;;20.50;87.70;;;;;;5011680;28;20073;-88
2021/07/28 09:54:09;;;;;;;11.10;9.10;;;20.50;87.70;;;;;;5010800;28;20120;-91
2021/07/28 09:56:52;;;;;;;11.35;9.13;;;20.50;87.90;;;;;;5015535;28;20096;-88
2021/07/28 09:59:22;;;;;;;12.85;9.45;;;20.50;88.40;;;;;;5015264;28;20092;-88
2021/07/28 10:01:48;;;;;;;11.40;8.93;;;20.60;88.70;;;;;;5015828;28;20045;-87
2021/07/28 10:04:16;;;;;;;11.15;8.77;;;20.70;88.00;;;;;;5015220;28;20052;-88
2021/07/28 10:06:43;;;;;;;15.45;9.07;;;20.70;87.50;;;;;;5014310;28;20463;-89
2021/07/28 10:09:10;;;;;;;11.70;8.07;;;20.80;87.20;;;;;;5007426;28;20398;-90
2021/07/28 10:11:40;;;;;;;13.60;8.90;;;20.80;86.70;;;;;;5019894;28;20137;-89
2021/07/28 10:14:08;;;;;;;10.25;8.32;;;20.90;86.60;;;;;;5010196;28;20046;-91
2021/07/28 10:16:34;;;;;;;11.15;8.00;;;20.90;85.60;;;;;;5037531;28;20072;-87
2021/07/28 10:19:03;;;;;;;12.25;8.27;;;21.00;85.90;;;;;;5036134;28;20485;-90
2021/07/28 10:21:31;;;;;;;10.93;7.68;;;21.00;85.20;;;;;;5034487;28;20505;-89
2021/07/28 10:23:58;;;;;;;11.88;7.80;;;21.00;85.20;;;;;;5017326;28;20084;-89
2021/07/28 10:26:24;;;;;;;11.60;8.23;;;21.10;84.80;;;;;;5015363;28;20077;-90
2021/07/28 10:28:50;;;;;;;9.90;7.47;;;21.20;84.10;;;;;;5015021;28;20088;-90
2021/07/28 10:31:20;;;;;;;9.50;7.22;;;21.20;83.00;;;;;;5015826;28;20082;-88
2021/07/28 10:33:46;;;;;;;10.68;7.22;;;21.10;82.90;;;;;;5016789;28;20046;-90
2021/07/28 10:36:20;;;;;;;11.35;6.63;;;21.20;83.10;;;;;;5016616;28;20061;-92
2021/07/28 10:39:04;;;;;;;9.48;6.40;;;21.10;82.80;;;;;;4998668;28;20056;-95
2021/07/28 10:41:36;;;;;;;10.35;6.50;;;21.00;82.10;;;;;;5010557;28;20046;-81
2021/07/28 10:44:16;;;;;;;8.18;6.72;;;21.00;82.60;;;;;;5015388;28;20065;-81
2021/07/28 10:46:54;;;;;;;10.63;6.50;;;20.90;82.20;;;;;;5015570;28;20049;-92
2021/07/28 10:49:35;;;;;;;10.90;7.60;;;20.90;82.80;;;;;;5017920;28;20077;-94
2021/07/28 10:52:02;;;;;;;11.80;7.70;;;20.90;83.60;;;;;;5017454;28;20049;-92
2021/07/28 10:54:49;;;;;;;10.25;6.93;;;20.90;83.80;;;;;;5016943;28;20049;-93
2021/07/28 10:57:33;;;;;;;9.75;7.57;;;20.90;84.00;;;;;;5017720;28;20069;-94
2021/07/28 11:00:04;;;;;;;9.18;6.50;;;20.90;84.50;;;;;;5013823;28;20046;-92
2021/07/28 11:02:51;;;;;;;12.43;7.00;;;20.90;84.70;;;;;;5014255;28;20042;-92
2021/07/28 11:05:22;;;;;;;8.57;5.68;;;21.00;84.10;;;;;;5010521;28;20057;-91
2021/07/28 11:08:06;;;;;;;9.65;6.63;;;21.00;83.70;;;;;;5015120;28;20046;-93
2021/07/28 11:10:40;;;;;;;9.20;6.90;;;21.00;83.80;;;;;;5016639;28;20050;-92
2021/07/28 11:13:12;;;;;;;11.40;6.78;;;21.00;84.50;;;;;;5010592;28;20046;-92
2021/07/28 11:15:41;;;;;;;8.95;6.72;;;21.00;84.70;;;;;;5015626;28;20081;-91
2021/07/28 11:18:07;;;;;;;8.52;6.68;;;21.00;85.00;;;;;;5016447;28;20053;-93
2021/07/28 11:20:32;;;;;;;9.90;6.90;;;21.00;85.00;;;;;;5015737;28;20522;-94
2021/07/28 11:23:16;;;;;;;8.93;6.65;;;21.00;85.00;;;;;;5016970;28;20133;-94
2021/07/28 11:25:42;;;;;;;9.95;6.72;;;21.00;84.70;;;;;;5017140;28;20050;-94
2021/07/28 11:28:09;;;;;;;9.20;5.80;;;21.00;84.90;;;;;;5016469;28;20405;-94
2021/07/28 11:30:35;;;;;;;8.60;5.57;;;21.00;84.60;;;;;;5014503;28;20157;-95
2021/07/28 11:33:12;;;;;;;8.05;5.68;;;21.00;84.20;;;;;;5014506;28;20057;-93
2021/07/28 11:35:46;;;;;;;10.07;5.07;;;20.90;84.20;;;;;;5010953;28;20482;-92
2021/07/28 11:38:15;;;;;;;7.70;5.63;;;20.90;84.60;;;;;;5011206;28;20049;-92
2021/07/28 11:40:45;;;;;;;9.25;5.43;;;20.90;84.90;;;;;;5017073;28;20486;-95
2021/07/28 11:43:31;;;;;;;10.43;5.30;;;20.90;85.50;;;;;;5016885;28;20049;-93
2021/07/28 11:46:03;;;;;;;7.90;4.82;;;20.90;84.50;;;;;;5015447;28;20092;-93
2021/07/28 11:48:31;;;;;;;6.97;5.32;;;20.90;84.80;;;;;;5016350;28;20100;-95
2021/07/28 11:51:04;;;;;;;9.73;5.00;;;20.90;85.10;;;;;;5016595;28;20521;-94
2021/07/28 11:53:31;;;;;;;9.70;4.85;;;21.00;84.20;;;;;;5016950;28;20056;-94
2021/07/28 11:56:11;;;;;;;8.07;5.32;;;20.90;84.60;;;;;;5016113;28;20417;-93
2021/07/28 11:58:42;;;;;;;10.35;5.25;;;21.00;84.90;;;;;;5011554;28;20165;-93
2021/07/28 12:01:35;;;;;;;7.82;4.82;;;21.00;84.20;;;;;;5015690;28;20054;-94
2021/07/28 12:04:17;;;;;;;8.13;4.82;;;21.00;84.20;;;;;;5003134;28;20085;-94
2021/07/28 12:06:43;;;;;;;9.32;4.97;;;21.10;83.80;;;;;;5009358;28;20053;-93
2021/07/28 12:09:25;;;;;;;8.55;4.45;;;21.10;84.60;;;;;;5016044;28;20046;-94
2021/07/28 12:12:02;;;;;;;12.70;5.57;;;21.10;84.40;;;;;;5015162;28;20560;-94
2021/07/28 12:14:31;;;;;;;7.93;4.55;;;21.20;83.70;;;;;;5014669;28;20406;-91
2021/07/28 12:16:59;;;;;;;11.18;4.43;;;21.20;83.10;;;;;;5011682;28;20104;-92
2021/07/28 12:19:29;;;;;;;9.27;5.00;;;21.20;82.70;;;;;;5010975;28;20132;-95
2021/07/28 12:22:09;;;;;;;13.95;5.32;;;21.20;82.70;;;;;;5036211;28;20140;-94
2021/07/28 12:24:48;;;;;;;10.45;4.53;;;21.20;82.60;;;;;;5002357;28;20054;-94
2021/07/28 12:27:29;;;;;;;6.63;4.72;;;21.30;81.90;;;;;;5029308;28;20052;-94
2021/07/28 12:30:17;;;;;;;8.05;4.93;;;21.20;81.80;;;;;;5020615;28;20045;-93
2021/07/28 12:32:49;;;;;;;7.18;4.50;;;21.20;81.70;;;;;;5035931;28;20048;-92
2021/07/28 12:35:21;;;;;;;9.03;4.90;;;21.30;83.00;;;;;;5005737;28;20054;-90
2021/07/28 12:38:28;;;;;;;8.23;4.53;;;21.30;82.40;;;;;;5034758;28;20052;-93
2021/07/28 12:40:56;;;;;;;11.20;5.00;;;21.30;81.70;;;;;;5025506;28;20050;-93